createdAt,value
2019-04-01T02:50:09.544Z,56.30
2019-04-01T02:52:40.261Z,56.00
2019-04-01T02:55:10.951Z,56.40
2019-04-01T02:57:42.002Z,55.80
2019-04-01T03:00:12.779Z,55.30
2019-04-01T03:02:43.547Z,55.30
2019-04-01T03:05:14.735Z,54.60
2019-04-01T03:07:45.700Z,54.70
2019-04-01T03:10:16.619Z,55.00
2019-04-01T03:12:47.598Z,54.10
2019-04-01T03:15:18.400Z,54.10
2019-04-01T03:17:50.405Z,54.20
2019-04-01T03:20:21.182Z,54.40
2019-04-01T03:22:52.222Z,53.90
2019-04-01T03:25:22.993Z,53.00
2019-04-01T03:27:55.191Z,52.50
2019-04-01T03:30:25.703Z,52.10
2019-04-01T03:32:56.455Z,52.30
2019-04-01T03:35:27.613Z,52.50
2019-04-01T03:37:58.208Z,52.00
2019-04-01T03:40:28.785Z,51.40
2019-04-01T03:42:59.811Z,51.20
2019-04-01T03:45:30.547Z,50.20
2019-04-01T03:48:01.438Z,49.90
2019-04-01T03:50:32.551Z,49.10
2019-04-01T03:53:03.205Z,49.80
2019-04-01T03:55:33.942Z,49.10
2019-04-01T03:58:04.752Z,49.30
2019-04-01T04:00:35.284Z,48.20
2019-04-01T04:03:06.258Z,48.30
2019-04-01T04:05:37.544Z,48.90
2019-04-01T04:08:08.055Z,48.80
2019-04-01T04:10:38.670Z,47.70
2019-04-01T04:13:09.732Z,48.40
2019-04-01T04:15:40.497Z,48.40
2019-04-01T04:18:11.070Z,48.50
2019-04-01T04:20:42.108Z,47.80
2019-04-01T04:23:12.681Z,47.40
2019-04-01T04:25:43.627Z,46.40
2019-04-01T04:28:14.696Z,46.50
2019-04-01T04:30:45.189Z,46.40
2019-04-01T04:33:16.020Z,46.10
2019-04-01T04:35:46.901Z,46.70
2019-04-01T04:38:17.283Z,45.70
2019-04-01T04:40:47.713Z,45.60
2019-04-01T04:43:18.613Z,45.60
2019-04-01T04:45:49.120Z,43.80
2019-04-01T04:48:19.907Z,42.60
2019-04-01T04:50:50.840Z,43.70
2019-04-01T04:53:21.629Z,44.00
2019-04-01T04:55:52.256Z,45.30
2019-04-01T04:58:23.196Z,45.10
2019-04-01T05:00:53.962Z,44.90
2019-04-01T05:03:24.699Z,45.80
2019-04-01T05:05:55.860Z,45.20
2019-04-01T05:08:26.586Z,45.20
2019-04-01T05:10:57.182Z,44.60
2019-04-01T05:13:28.011Z,45.30
2019-04-01T05:15:58.758Z,45.80
2019-04-01T05:18:29.441Z,45.90
2019-04-01T05:21:01.554Z,46.00
2019-04-01T05:23:32.327Z,45.70
2019-04-01T05:26:02.997Z,45.40
2019-04-01T05:28:34.784Z,45.80
2019-04-01T05:31:05.218Z,45.80
2019-04-01T05:33:36.077Z,46.10
2019-04-01T05:36:06.936Z,45.20
2019-04-01T05:38:37.559Z,45.20
2019-04-01T05:41:08.291Z,45.10
2019-04-01T05:43:39.180Z,44.90
2019-04-01T05:46:10.025Z,44.90
2019-04-01T05:48:40.651Z,45.30
2019-04-01T05:51:11.508Z,44.60
2019-04-01T05:53:42.156Z,44.70
2019-04-01T05:56:13.270Z,43.90
2019-04-01T05:58:44.323Z,44.00
2019-04-01T06:01:16.410Z,44.60
2019-04-01T06:03:46.868Z,44.40
2019-04-01T06:06:17.704Z,44.50
2019-04-01T06:08:48.303Z,44.10
2019-04-01T06:11:18.763Z,43.60
2019-04-01T06:13:49.794Z,44.00
2019-04-01T06:16:20.426Z,43.80
2019-04-01T06:18:51.002Z,43.60
2019-04-01T06:21:23.519Z,43.20
2019-04-01T06:23:54.042Z,42.90
2019-04-01T06:26:24.724Z,43.10
2019-04-01T06:28:55.504Z,43.20
2019-04-01T06:31:26.113Z,43.50
2019-04-01T06:33:56.767Z,43.60
2019-04-01T06:36:27.497Z,43.00
2019-04-01T06:38:58.143Z,43.90
2019-04-01T06:41:28.873Z,43.70
2019-04-01T06:44:02.579Z,43.40
2019-04-01T06:46:33.392Z,43.40
2019-04-01T06:49:04.270Z,43.70
2019-04-01T06:51:34.981Z,43.50
2019-04-01T06:54:06.000Z,43.80
2019-04-01T06:56:36.795Z,44.00
2019-04-01T06:59:07.563Z,44.80
2019-04-01T07:01:38.967Z,44.50
2019-04-01T07:04:09.725Z,44.40
2019-04-01T07:06:40.345Z,44.40
2019-04-01T07:09:11.342Z,45.40
2019-04-01T07:11:42.375Z,44.50
2019-04-01T07:14:13.271Z,42.60
2019-04-01T07:16:44.057Z,43.70
2019-04-01T07:19:14.997Z,41.80
2019-04-01T07:21:45.762Z,42.40
2019-04-01T07:24:16.836Z,43.50
2019-04-01T07:26:47.585Z,42.80
2019-04-01T07:29:18.630Z,43.00
2019-04-01T07:31:49.677Z,42.40
2019-04-01T07:34:20.551Z,42.10
2019-04-01T07:36:51.122Z,43.10
2019-04-01T07:39:21.993Z,43.30
2019-04-01T07:41:52.825Z,42.80
2019-04-01T07:44:23.480Z,42.70
2019-04-01T07:46:54.527Z,42.30
2019-04-01T07:49:25.271Z,42.50
2019-04-01T07:51:56.018Z,40.90
2019-04-01T07:54:26.964Z,40.80
2019-04-01T07:56:57.678Z,41.40
2019-04-01T07:59:28.427Z,40.50
2019-04-01T08:01:59.660Z,40.70
2019-04-01T08:04:30.337Z,40.00
2019-04-01T08:07:01.194Z,40.40
2019-04-01T08:09:32.163Z,41.30
2019-04-01T08:12:02.910Z,40.60
2019-04-01T08:14:37.428Z,40.40
2019-04-01T08:17:08.220Z,39.80
2019-04-01T08:19:38.903Z,40.30
2019-04-01T08:22:09.840Z,40.90
2019-04-01T08:24:40.623Z,41.00
2019-04-01T08:27:11.263Z,41.10
2019-04-01T08:29:42.171Z,41.70
2019-04-01T08:32:14.020Z,41.40
2019-04-01T08:34:44.831Z,42.30
2019-04-01T08:37:15.636Z,42.50
2019-04-01T08:39:53.043Z,42.20
2019-04-01T08:42:23.806Z,41.70
2019-04-01T08:44:54.453Z,40.60
2019-04-01T08:47:25.251Z,41.50
2019-04-01T08:49:56.043Z,41.10
2019-04-01T08:52:27.468Z,41.20
2019-04-01T08:54:57.968Z,41.00
2019-04-01T08:57:29.160Z,41.10
2019-04-01T09:00:00.601Z,40.50
2019-04-01T09:02:31.266Z,41.60
2019-04-01T09:05:02.375Z,42.10
2019-04-01T09:07:33.221Z,40.30
2019-04-01T09:10:03.986Z,40.70
2019-04-01T09:12:34.970Z,41.60
2019-04-01T09:15:05.789Z,41.20
2019-04-01T09:17:39.923Z,41.00
2019-04-01T09:20:08.718Z,41.10
2019-04-01T09:22:39.446Z,41.80
2019-04-01T09:25:09.952Z,42.10
2019-04-01T09:27:40.842Z,41.50
2019-04-01T09:30:11.492Z,40.50
2019-04-01T09:32:42.282Z,41.40
2019-04-01T09:35:13.155Z,41.50
2019-04-01T09:37:43.800Z,41.10
2019-04-01T09:40:15.375Z,41.30
2019-04-01T09:42:46.381Z,41.50
2019-04-01T09:45:17.261Z,41.80
2019-04-01T09:47:48.854Z,41.40
2019-04-01T09:50:20.481Z,41.30
2019-04-01T09:52:50.879Z,40.70
2019-04-01T09:55:21.951Z,41.60
2019-04-01T09:57:53.283Z,41.50
2019-04-01T10:00:24.436Z,41.40
2019-04-01T10:02:55.976Z,42.00
2019-04-01T10:05:26.830Z,42.50
2019-04-01T10:07:57.517Z,42.70
2019-04-01T10:10:28.371Z,42.70
2019-04-01T10:12:59.268Z,42.00
2019-04-01T10:15:29.839Z,42.10
2019-04-01T10:18:00.315Z,43.50
2019-04-01T10:20:31.313Z,43.30
2019-04-01T10:23:02.181Z,43.10
2019-04-01T10:25:33.032Z,43.90
2019-04-01T10:28:04.322Z,43.40
2019-04-01T10:30:36.931Z,43.30
2019-04-01T10:33:07.812Z,43.10
2019-04-01T10:35:38.758Z,43.20
2019-04-01T10:38:09.731Z,43.20
2019-04-01T10:40:40.282Z,43.50
2019-04-01T10:43:11.257Z,43.90
2019-04-01T10:45:42.040Z,43.90
2019-04-01T10:48:12.759Z,43.80
2019-04-01T10:50:43.656Z,43.90
2019-04-01T10:53:14.698Z,44.00
2019-04-01T10:55:45.639Z,44.30
2019-04-01T10:58:16.464Z,44.60
2019-04-01T11:00:48.094Z,44.70
2019-04-01T11:03:19.536Z,45.00
2019-04-01T11:05:51.009Z,45.20
2019-04-01T11:08:21.722Z,45.40
2019-04-01T11:10:52.947Z,45.40
2019-04-01T11:13:24.307Z,45.50
2019-04-01T11:15:54.951Z,45.40
2019-04-01T11:18:26.140Z,45.50
2019-04-01T11:20:57.183Z,45.60
2019-04-01T11:23:28.172Z,45.80
2019-04-01T11:25:59.398Z,45.90
2019-04-01T11:28:30.837Z,46.10
2019-04-01T11:31:01.734Z,46.20
2019-04-01T11:33:32.539Z,46.30
2019-04-01T11:36:05.146Z,46.40
2019-04-01T11:38:36.491Z,46.60
2019-04-01T11:41:07.273Z,46.80
2019-04-01T11:43:38.474Z,47.10
2019-04-01T11:46:12.322Z,47.30
2019-04-01T11:48:41.791Z,47.40
2019-04-01T11:51:12.407Z,47.60
2019-04-01T11:53:43.671Z,47.70
2019-04-01T11:56:14.708Z,47.90
2019-04-01T11:58:46.366Z,48.10
2019-04-01T12:01:17.214Z,48.20
2019-04-01T12:03:47.996Z,48.20
2019-04-01T12:06:18.424Z,48.50
2019-04-01T12:08:49.160Z,50.30
2019-04-01T12:11:20.226Z,51.10
2019-04-01T12:13:50.786Z,50.90
2019-04-01T12:16:21.301Z,51.10
2019-04-01T12:18:52.169Z,50.90
2019-04-01T12:21:23.640Z,50.90
2019-04-01T12:23:54.460Z,50.80
2019-04-01T12:26:25.693Z,51.20
2019-04-01T12:28:56.546Z,51.10
2019-04-01T12:31:27.147Z,52.00
2019-04-01T12:33:58.203Z,52.80
2019-04-01T12:36:28.906Z,52.30
2019-04-01T12:38:59.472Z,52.00
2019-04-01T12:41:30.561Z,51.90
2019-04-01T12:44:01.146Z,52.50
2019-04-01T12:46:31.723Z,51.60
2019-04-01T12:49:02.785Z,51.50
2019-04-01T12:51:33.592Z,51.10
2019-04-01T12:54:04.531Z,51.50
2019-04-01T12:56:35.758Z,51.60
2019-04-01T12:59:07.645Z,51.70
2019-04-01T13:01:38.282Z,51.50
2019-04-01T13:04:09.747Z,51.20
2019-04-01T13:06:40.464Z,51.30
2019-04-01T13:09:11.099Z,51.40
2019-04-01T13:11:44.876Z,51.50
2019-04-01T13:14:16.268Z,51.70
2019-04-01T13:16:47.087Z,51.90
2019-04-01T13:19:17.863Z,52.10
2019-04-01T13:21:48.485Z,52.30
2019-04-01T13:24:19.530Z,52.50
2019-04-01T13:26:51.130Z,52.60
2019-04-01T13:29:21.800Z,52.90
2019-04-01T13:31:52.698Z,53.00
